Hanna, CO

1:06 AM MDT on March 26, 2017 (GMT -0600)
MDNRC2 | | Change Station

Elev 7976 ft 37.69 °N, 106.46 °W | Updated 2 hours ago

Light Rain
Light Rain
41.0 °F
Feels Like 41.0 °F
N
-
Wind Variable Wind from North

Today
High -- | Low -- °F
--% Chance of Precip.
Yesterday
High -- | Low -- °F
Precip. -- in
Pressure 29.91 in
Visibility 10.0 miles
Clouds Mostly Cloudy 2100 ft
Mostly Cloudy 2600 ft
Overcast 3100 ft
Dew Point Not available.
Humidity Not available.
Rainfall in
Snow Depth Not available.
6:59 AM 7:23 PM
Waning Crescent, 4% visible
METAR K04V 260656Z AUTO 25004KT 10SM -RA BKN021 BKN026 OVC031 04/M01 A2991 RMK AO2
Pressure 29.91 in
Visibility 10.0 miles
Clouds Mostly Cloudy 2100 ft
Mostly Cloudy 2600 ft
Overcast 3100 ft
Dew Point Not available.
Humidity Not available.
Rainfall in
Snow Depth Not available.
6:59 AM 7:23 PM
Waning Crescent, 4% visible
METAR K04V 260656Z AUTO 25004KT 10SM -RA BKN021 BKN026 OVC031 04/M01 A2991 RMK AO2

Get Severe Weather Alerts

Thanks for signing up!

Be on the lookout for a verification email in your inbox.

You'll start receiving the daily forecast at 8 AM.

×

10-Day Weather Forecast

Almanac

Astronomy

Mar. 26, 2017 Rise Set
Actual Time
Civil Twilight
Nautical Twilight
Astronomical Twilight
Moon
Length of Visible Light
Length of Day
Tomorrow will be .
, % of the Moon is Illuminated

Today's Extremes

State Highs State Lows

Community

WunderPhotos

Upload Photos

1,962,540 photos uploaded!

WunderBlog® & News

Nearby

Air Quality

  Air Quality AQ Index Pollutant
Not available.

Snow Depth

Station Depth Elevation

Earthquake Activity

City Distance Mag. Time & Date
Minimum magnitude displayed is 2.5.

Earthquake Activity

City Distance Mag. Time & Date
Minimum magnitude displayed is 2.5.

Coastal Water Temperatures

Place Temperature

Stations

Nearby Weather Stations

Station Location Temp. Windchill Dew Point Humidity Wind Precip. Elev Updated Type
                   

Watches & Warnings

There are currently no watches in effect.